CTN040 LDZA-LDZD
Flight info
| Callsign | CTN040 |
|---|---|
| Flight time | 0h 32m |
| Altitude | 16000 |
| Route | KOTO3S KOTOR KULEN OBALA DCT KUDUL |
| Aircraft | A320/M-S/L |
Departure
| Time | 2026-05-08 20:53 |
|---|---|
| Airport | Zagreb Franjo Tuđman International Airport (LDZA) |
Arrival
| Time | 2026-05-08 21:25 |
|---|---|
| Airport | Zadar Airport (LDZD) |
| Time | Latitude | Longitude | Altitude | Speed | Heading |
|---|---|---|---|---|---|
| 2026-05-08 20:43 | 45.74299 | 16.07993 | 363 ft | 0 kts | 136° |
| 2026-05-08 20:50 | 45.74302 | 16.07989 | 372 ft | 2 kts | 136° |
| 2026-05-08 20:50 | 45.74330 | 16.07950 | 364 ft | 10 kts | 137° |
| 2026-05-08 20:51 | 45.74348 | 16.07907 | 360 ft | 4 kts | 213° |
| 2026-05-08 20:51 | 45.74362 | 16.07883 | 363 ft | 9 kts | 349° |
| 2026-05-08 20:51 | 45.74447 | 16.07814 | 354 ft | 22 kts | 315° |
| 2026-05-08 20:51 | 45.74589 | 16.07625 | 356 ft | 33 kts | 317° |
| 2026-05-08 20:52 | 45.74673 | 16.07468 | 358 ft | 7 kts | 256° |
| 2026-05-08 20:52 | 45.74539 | 16.07263 | 361 ft | 62 kts | 228° |
| 2026-05-08 20:52 | 45.74060 | 16.06523 | 366 ft | 141 kts | 227° |
| 2026-05-08 20:52 | 45.73276 | 16.05320 | 826 ft | 171 kts | 227° |
| 2026-05-08 20:53 | 45.72466 | 16.04060 | 1814 ft | 173 kts | 228° |
| 2026-05-08 20:53 | 45.71670 | 16.02781 | 2819 ft | 174 kts | 229° |
| 2026-05-08 20:53 | 45.70864 | 16.01456 | 3697 ft | 178 kts | 229° |
| 2026-05-08 20:53 | 45.70049 | 16.00112 | 4330 ft | 179 kts | 229° |
| 2026-05-08 20:54 | 45.69221 | 15.98745 | 4694 ft | 184 kts | 229° |
| 2026-05-08 20:54 | 45.68359 | 15.97321 | 4948 ft | 203 kts | 229° |
| 2026-05-08 20:54 | 45.67385 | 15.95720 | 5552 ft | 217 kts | 229° |
| 2026-05-08 20:54 | 45.66392 | 15.94090 | 6574 ft | 219 kts | 229° |
| 2026-05-08 20:55 | 45.65383 | 15.92434 | 7521 ft | 222 kts | 229° |
| 2026-05-08 20:55 | 45.64339 | 15.90719 | 8311 ft | 239 kts | 229° |
| 2026-05-08 20:55 | 45.63208 | 15.88859 | 9112 ft | 257 kts | 229° |
| 2026-05-08 20:55 | 45.61998 | 15.86868 | 9997 ft | 273 kts | 229° |
| 2026-05-08 20:56 | 45.60712 | 15.84741 | 10684 ft | 295 kts | 229° |
| 2026-05-08 20:56 | 45.59325 | 15.82438 | 11337 ft | 317 kts | 229° |
| 2026-05-08 20:56 | 45.57842 | 15.79976 | 12048 ft | 336 kts | 229° |
| 2026-05-08 20:56 | 45.56278 | 15.77376 | 12801 ft | 353 kts | 229° |
| 2026-05-08 20:57 | 45.54643 | 15.74658 | 13585 ft | 369 kts | 229° |
| 2026-05-08 20:57 | 45.52945 | 15.71836 | 14322 ft | 382 kts | 229° |
| 2026-05-08 20:57 | 45.51183 | 15.68911 | 15086 ft | 393 kts | 229° |
| 2026-05-08 20:57 | 45.49395 | 15.65947 | 15887 ft | 396 kts | 229° |
| 2026-05-08 20:58 | 45.47625 | 15.63014 | 15994 ft | 376 kts | 229° |
| 2026-05-08 20:58 | 45.45973 | 15.60295 | 16035 ft | 356 kts | 229° |
| 2026-05-08 20:58 | 45.44339 | 15.57633 | 16058 ft | 358 kts | 228° |
| 2026-05-08 20:58 | 45.42742 | 15.55051 | 16063 ft | 340 kts | 228° |
| 2026-05-08 20:59 | 45.41230 | 15.52617 | 16065 ft | 316 kts | 228° |
| 2026-05-08 20:59 | 45.39825 | 15.50361 | 16064 ft | 295 kts | 228° |
| 2026-05-08 20:59 | 45.38508 | 15.48251 | 16065 ft | 275 kts | 228° |
| 2026-05-08 20:59 | 45.37260 | 15.46257 | 16073 ft | 268 kts | 228° |
| 2026-05-08 21:00 | 45.36015 | 15.44271 | 16075 ft | 270 kts | 228° |
| 2026-05-08 21:00 | 45.34763 | 15.42278 | 16072 ft | 269 kts | 228° |
| 2026-05-08 21:00 | 45.33520 | 15.40299 | 16075 ft | 268 kts | 228° |
| 2026-05-08 21:00 | 45.32275 | 15.38318 | 16076 ft | 269 kts | 228° |
| 2026-05-08 21:01 | 45.31027 | 15.36334 | 16078 ft | 269 kts | 228° |
| 2026-05-08 21:01 | 45.29782 | 15.34356 | 16076 ft | 268 kts | 228° |
| 2026-05-08 21:01 | 45.28540 | 15.32385 | 16077 ft | 268 kts | 228° |
| 2026-05-08 21:01 | 45.27297 | 15.30410 | 16072 ft | 268 kts | 228° |
| 2026-05-08 21:02 | 45.26056 | 15.28441 | 16080 ft | 268 kts | 228° |
| 2026-05-08 21:02 | 45.24811 | 15.26467 | 16080 ft | 269 kts | 228° |
| 2026-05-08 21:02 | 45.23567 | 15.24494 | 16080 ft | 268 kts | 227° |
| 2026-05-08 21:02 | 45.22327 | 15.22531 | 16079 ft | 267 kts | 227° |
| 2026-05-08 21:03 | 45.21086 | 15.20567 | 16080 ft | 268 kts | 227° |
| 2026-05-08 21:03 | 45.19842 | 15.18600 | 16080 ft | 267 kts | 227° |
| 2026-05-08 21:03 | 45.18598 | 15.16642 | 16086 ft | 267 kts | 225° |
| 2026-05-08 21:03 | 45.17191 | 15.14937 | 16088 ft | 267 kts | 215° |
| 2026-05-08 21:04 | 45.15668 | 15.13497 | 16084 ft | 267 kts | 211° |
| 2026-05-08 21:04 | 45.14069 | 15.12160 | 16085 ft | 266 kts | 209° |
| 2026-05-08 21:04 | 45.12445 | 15.10907 | 16081 ft | 266 kts | 207° |
| 2026-05-08 21:04 | 45.10796 | 15.09705 | 16082 ft | 266 kts | 206° |
| 2026-05-08 21:05 | 45.09137 | 15.08544 | 16078 ft | 266 kts | 206° |
| 2026-05-08 21:05 | 45.07471 | 15.07412 | 16079 ft | 265 kts | 205° |
| 2026-05-08 21:05 | 45.05805 | 15.06298 | 16082 ft | 265 kts | 205° |
| 2026-05-08 21:05 | 45.04131 | 15.05191 | 16084 ft | 265 kts | 205° |
| 2026-05-08 21:06 | 45.02456 | 15.04090 | 16082 ft | 265 kts | 205° |
| 2026-05-08 21:06 | 45.00786 | 15.02996 | 16080 ft | 264 kts | 205° |
| 2026-05-08 21:06 | 44.99119 | 15.01906 | 16078 ft | 264 kts | 205° |
| 2026-05-08 21:06 | 44.97449 | 15.00812 | 16083 ft | 265 kts | 205° |
| 2026-05-08 21:07 | 44.95776 | 14.99716 | 16080 ft | 264 kts | 205° |
| 2026-05-08 21:07 | 44.94085 | 14.98724 | 16081 ft | 263 kts | 188° |
| 2026-05-08 21:07 | 44.92248 | 14.98757 | 16113 ft | 268 kts | 173° |
| 2026-05-08 21:07 | 44.90410 | 14.99149 | 16100 ft | 266 kts | 172° |
| 2026-05-08 21:08 | 44.88591 | 14.99561 | 16087 ft | 265 kts | 172° |
| 2026-05-08 21:08 | 44.86761 | 14.99958 | 16087 ft | 266 kts | 172° |
| 2026-05-08 21:08 | 44.84931 | 15.00324 | 16082 ft | 265 kts | 173° |
| 2026-05-08 21:08 | 44.83101 | 15.00657 | 16079 ft | 266 kts | 174° |
| 2026-05-08 21:09 | 44.81286 | 15.00957 | 16077 ft | 267 kts | 174° |
| 2026-05-08 21:09 | 44.79439 | 15.01238 | 16077 ft | 266 kts | 175° |
| 2026-05-08 21:09 | 44.77574 | 15.01503 | 16088 ft | 266 kts | 175° |
| 2026-05-08 21:09 | 44.75752 | 15.01748 | 16082 ft | 267 kts | 175° |
| 2026-05-08 21:10 | 44.73902 | 15.01986 | 16084 ft | 267 kts | 175° |
| 2026-05-08 21:10 | 44.72054 | 15.02215 | 16076 ft | 266 kts | 175° |
| 2026-05-08 21:10 | 44.70203 | 15.02442 | 16084 ft | 268 kts | 176° |
| 2026-05-08 21:10 | 44.68348 | 15.02665 | 16077 ft | 268 kts | 176° |
| 2026-05-08 21:11 | 44.66488 | 15.02885 | 16078 ft | 268 kts | 176° |
| 2026-05-08 21:11 | 44.64633 | 15.03105 | 16075 ft | 268 kts | 176° |
| 2026-05-08 21:11 | 44.62773 | 15.03325 | 16083 ft | 268 kts | 176° |
| 2026-05-08 21:11 | 44.60912 | 15.03542 | 16082 ft | 269 kts | 176° |
| 2026-05-08 21:12 | 44.59047 | 15.03761 | 16079 ft | 269 kts | 176° |
| 2026-05-08 21:12 | 44.57183 | 15.03979 | 16085 ft | 269 kts | 176° |
| 2026-05-08 21:12 | 44.55319 | 15.04196 | 16084 ft | 269 kts | 176° |
| 2026-05-08 21:12 | 44.53450 | 15.04414 | 16075 ft | 269 kts | 176° |
| 2026-05-08 21:13 | 44.51574 | 15.04634 | 15923 ft | 270 kts | 176° |
| 2026-05-08 21:13 | 44.49708 | 15.04852 | 15544 ft | 269 kts | 176° |
| 2026-05-08 21:13 | 44.47840 | 15.05069 | 15095 ft | 269 kts | 175° |
| 2026-05-08 21:13 | 44.45974 | 15.05286 | 14666 ft | 269 kts | 175° |
| 2026-05-08 21:14 | 44.44110 | 15.05503 | 14246 ft | 269 kts | 175° |
| 2026-05-08 21:14 | 44.42243 | 15.05720 | 13830 ft | 268 kts | 175° |
| 2026-05-08 21:14 | 44.40386 | 15.05935 | 13381 ft | 267 kts | 175° |
| 2026-05-08 21:14 | 44.38541 | 15.06148 | 12970 ft | 265 kts | 175° |
| 2026-05-08 21:15 | 44.36711 | 15.06359 | 12556 ft | 263 kts | 175° |
| 2026-05-08 21:15 | 44.34890 | 15.06570 | 12145 ft | 262 kts | 175° |
| 2026-05-08 21:15 | 44.33079 | 15.06779 | 11735 ft | 260 kts | 175° |
| 2026-05-08 21:15 | 44.31278 | 15.06987 | 11375 ft | 261 kts | 174° |
| 2026-05-08 21:16 | 44.29473 | 15.07197 | 11211 ft | 257 kts | 174° |
| 2026-05-08 21:16 | 44.27723 | 15.07400 | 11151 ft | 256 kts | 174° |
| 2026-05-08 21:16 | 44.25944 | 15.07608 | 11047 ft | 258 kts | 174° |
| 2026-05-08 21:16 | 44.24213 | 15.07809 | 10768 ft | 234 kts | 174° |
| 2026-05-08 21:17 | 44.22554 | 15.08001 | 10167 ft | 242 kts | 174° |
| 2026-05-08 21:17 | 44.20880 | 15.08194 | 9701 ft | 240 kts | 174° |
| 2026-05-08 21:17 | 44.19219 | 15.08390 | 9243 ft | 238 kts | 174° |
| 2026-05-08 21:17 | 44.17574 | 15.08586 | 8790 ft | 236 kts | 174° |
| 2026-05-08 21:18 | 44.15943 | 15.08780 | 8343 ft | 234 kts | 174° |
| 2026-05-08 21:18 | 44.14328 | 15.08972 | 7908 ft | 232 kts | 174° |
| 2026-05-08 21:18 | 44.12749 | 15.09160 | 7454 ft | 223 kts | 174° |
| 2026-05-08 21:18 | 44.11225 | 15.09340 | 6932 ft | 217 kts | 175° |
| 2026-05-08 21:19 | 44.09731 | 15.09517 | 6408 ft | 213 kts | 175° |
| 2026-05-08 21:19 | 44.08268 | 15.09686 | 5878 ft | 210 kts | 175° |
| 2026-05-08 21:19 | 44.06862 | 15.10062 | 5414 ft | 204 kts | 153° |
| 2026-05-08 21:19 | 44.05670 | 15.11098 | 4900 ft | 201 kts | 144° |
| 2026-05-08 21:20 | 44.04603 | 15.12282 | 4148 ft | 188 kts | 139° |
| 2026-05-08 21:20 | 44.03658 | 15.13499 | 3603 ft | 185 kts | 135° |
| 2026-05-08 21:20 | 44.02754 | 15.14789 | 3284 ft | 185 kts | 132° |
| 2026-05-08 21:20 | 44.01886 | 15.16111 | 3123 ft | 186 kts | 131° |
| 2026-05-08 21:21 | 44.01028 | 15.17463 | 3059 ft | 187 kts | 130° |
| 2026-05-08 21:21 | 44.00169 | 15.18832 | 3031 ft | 188 kts | 130° |
| 2026-05-08 21:21 | 43.99307 | 15.20206 | 2947 ft | 191 kts | 130° |
| 2026-05-08 21:21 | 43.98664 | 15.21778 | 2709 ft | 188 kts | 94° |
| 2026-05-08 21:22 | 43.99056 | 15.23390 | 2611 ft | 164 kts | 45° |
| 2026-05-08 21:22 | 43.99824 | 15.24348 | 2377 ft | 151 kts | 38° |
| 2026-05-08 21:22 | 44.00629 | 15.25255 | 2027 ft | 146 kts | 37° |
| 2026-05-08 21:22 | 44.01430 | 15.26141 | 1571 ft | 147 kts | 36° |
| 2026-05-08 21:23 | 44.02277 | 15.27092 | 1392 ft | 158 kts | 37° |
| 2026-05-08 21:23 | 44.03049 | 15.28046 | 1358 ft | 148 kts | 40° |
| 2026-05-08 21:23 | 44.03800 | 15.29006 | 1416 ft | 147 kts | 40° |
| 2026-05-08 21:23 | 44.04575 | 15.29973 | 1181 ft | 147 kts | 39° |
| 2026-05-08 21:24 | 44.05348 | 15.30912 | 968 ft | 147 kts | 39° |
| 2026-05-08 21:24 | 44.06111 | 15.31849 | 779 ft | 145 kts | 40° |
| 2026-05-08 21:24 | 44.06870 | 15.32790 | 609 ft | 147 kts | 39° |
| 2026-05-08 21:24 | 44.07635 | 15.33729 | 385 ft | 144 kts | 41° |
| 2026-05-08 21:25 | 44.08357 | 15.34620 | 293 ft | 124 kts | 41° |
| 2026-05-08 21:25 | 44.08836 | 15.35213 | 286 ft | 56 kts | 42° |
| 2026-05-08 21:25 | 44.09034 | 15.35463 | 281 ft | 31 kts | 42° |
| 2026-05-08 21:25 | 44.09180 | 15.35646 | 279 ft | 26 kts | 41° |
| 2026-05-08 21:26 | 44.09289 | 15.35728 | 282 ft | 10 kts | 346° |
| 2026-05-08 21:26 | 44.09323 | 15.35691 | 280 ft | 3 kts | 314° |
| 2026-05-08 21:26 | 44.09331 | 15.35679 | 280 ft | 6 kts | 314° |
| 2026-05-08 21:26 | 44.09377 | 15.35613 | 280 ft | 13 kts | 314° |
| 2026-05-08 21:27 | 44.09458 | 15.35548 | 278 ft | 14 kts | 352° |
| 2026-05-08 21:27 | 44.09556 | 15.35544 | 276 ft | 15 kts | 359° |
| 2026-05-08 21:27 | 44.09630 | 15.35509 | 274 ft | 8 kts | 288° |
| 2026-05-08 21:27 | 44.09647 | 15.35457 | 276 ft | 4 kts | 318° |
| 2026-05-08 21:28 | 44.09662 | 15.35442 | 273 ft | 1 kts | 326° |
| 2026-05-08 21:28 | 44.09663 | 15.35441 | 273 ft | 0 kts | 326° |